sensor_id;sensor_type;location;lat;lon;timestamp;P1;durP1;ratioP1;P2;durP2;ratioP2
5847;SDS011;8756;49.29324300;8.70599800;2022-11-24T00:01:26;18.37;;;5.97;;
5847;SDS011;8756;49.29324300;8.70599800;2022-11-24T00:04:02;18.80;;;5.83;;
5847;SDS011;8756;49.29324300;8.70599800;2022-11-24T00:06:30;14.50;;;6.50;;
5847;SDS011;8756;49.29324300;8.70599800;2022-11-24T00:08:59;24.30;;;7.07;;
5847;SDS011;8756;49.29324300;8.70599800;2022-11-24T00:11:29;18.03;;;6.10;;
5847;SDS011;8756;49.29324300;8.70599800;2022-11-24T00:16:58;18.77;;;5.80;;
5847;SDS011;8756;49.29324300;8.70599800;2022-11-24T00:19:23;14.07;;;5.37;;
5847;SDS011;8756;49.29324300;8.70599800;2022-11-24T00:21:50;16.00;;;5.43;;
5847;SDS011;8756;49.29324300;8.70599800;2022-11-24T00:24:15;14.50;;;5.93;;
5847;SDS011;8756;49.29324300;8.70599800;2022-11-24T00:26:41;13.30;;;4.20;;
5847;SDS011;8756;49.29324300;8.70599800;2022-11-24T00:29:08;25.90;;;5.37;;
5847;SDS011;8756;49.29324300;8.70599800;2022-11-24T00:31:35;16.97;;;4.80;;
5847;SDS011;8756;49.29324300;8.70599800;2022-11-24T00:34:05;15.23;;;4.87;;
5847;SDS011;8756;49.29324300;8.70599800;2022-11-24T00:36:35;15.43;;;4.80;;
5847;SDS011;8756;49.29324300;8.70599800;2022-11-24T00:39:03;14.03;;;5.07;;
5847;SDS011;8756;49.29324300;8.70599800;2022-11-24T00:41:32;18.40;;;5.67;;
5847;SDS011;8756;49.29324300;8.70599800;2022-11-24T00:44:33;14.20;;;4.43;;
5847;SDS011;8756;49.29324300;8.70599800;2022-11-24T00:46:59;21.57;;;5.43;;
5847;SDS011;8756;49.29324300;8.70599800;2022-11-24T00:49:25;15.23;;;4.43;;
5847;SDS011;8756;49.29324300;8.70599800;2022-11-24T00:51:51;15.90;;;5.20;;
5847;SDS011;8756;49.29324300;8.70599800;2022-11-24T00:54:17;17.13;;;5.40;;
5847;SDS011;8756;49.29324300;8.70599800;2022-11-24T00:56:42;17.10;;;4.87;;
5847;SDS011;8756;49.29324300;8.70599800;2022-11-24T00:59:08;16.30;;;5.53;;
5847;SDS011;8756;49.29324300;8.70599800;2022-11-24T01:01:34;18.07;;;4.83;;
5847;SDS011;8756;49.29324300;8.70599800;2022-11-24T01:04:00;11.87;;;4.60;;
5847;SDS011;8756;49.29324300;8.70599800;2022-11-24T01:06:27;17.13;;;6.03;;
5847;SDS011;8756;49.29324300;8.70599800;2022-11-24T01:08:55;14.60;;;5.40;;
5847;SDS011;8756;49.29324300;8.70599800;2022-11-24T01:11:23;17.63;;;5.30;;
5847;SDS011;8756;49.29324300;8.70599800;2022-11-24T01:14:33;23.47;;;6.07;;
5847;SDS011;8756;49.29324300;8.70599800;2022-11-24T01:16:58;14.60;;;5.43;;
5847;SDS011;8756;49.29324300;8.70599800;2022-11-24T01:19:25;20.33;;;4.80;;
5847;SDS011;8756;49.29324300;8.70599800;2022-11-24T01:21:51;14.33;;;5.17;;
5847;SDS011;8756;49.29324300;8.70599800;2022-11-24T01:24:16;19.37;;;5.47;;
5847;SDS011;8756;49.29324300;8.70599800;2022-11-24T01:26:42;13.70;;;4.67;;
5847;SDS011;8756;49.29324300;8.70599800;2022-11-24T01:29:08;20.63;;;5.37;;
5847;SDS011;8756;49.29324300;8.70599800;2022-11-24T01:31:36;17.60;;;5.27;;
5847;SDS011;8756;49.29324300;8.70599800;2022-11-24T01:34:02;15.60;;;5.30;;
5847;SDS011;8756;49.29324300;8.70599800;2022-11-24T01:36:28;21.23;;;5.90;;
5847;SDS011;8756;49.29324300;8.70599800;2022-11-24T01:38:53;16.47;;;4.70;;
5847;SDS011;8756;49.29324300;8.70599800;2022-11-24T01:41:21;19.17;;;4.80;;
5847;SDS011;8756;49.29324300;8.70599800;2022-11-24T01:43:49;16.60;;;4.83;;
5847;SDS011;8756;49.29324300;8.70599800;2022-11-24T01:49:11;13.50;;;5.47;;
5847;SDS011;8756;49.29324300;8.70599800;2022-11-24T01:54:38;21.47;;;6.07;;
5847;SDS011;8756;49.29324300;8.70599800;2022-11-24T01:59:48;16.13;;;5.27;;
5847;SDS011;8756;49.29324300;8.70599800;2022-11-24T02:02:22;19.90;;;5.07;;
5847;SDS011;8756;49.29324300;8.70599800;2022-11-24T02:04:51;19.17;;;5.50;;
5847;SDS011;8756;49.29324300;8.70599800;2022-11-24T02:07:17;27.17;;;6.17;;
5847;SDS011;8756;49.29324300;8.70599800;2022-11-24T02:09:56;18.87;;;5.70;;
5847;SDS011;8756;49.29324300;8.70599800;2022-11-24T02:12:27;14.63;;;5.30;;
5847;SDS011;8756;49.29324300;8.70599800;2022-11-24T02:14:53;21.00;;;5.10;;
5847;SDS011;8756;49.29324300;8.70599800;2022-11-24T02:17:20;19.47;;;5.70;;
5847;SDS011;8756;49.29324300;8.70599800;2022-11-24T02:19:53;16.23;;;5.20;;
5847;SDS011;8756;49.29324300;8.70599800;2022-11-24T02:22:31;15.30;;;4.70;;
5847;SDS011;8756;49.29324300;8.70599800;2022-11-24T02:28:14;17.03;;;4.40;;
5847;SDS011;8756;49.29324300;8.70599800;2022-11-24T02:30:44;15.67;;;5.13;;
5847;SDS011;8756;49.29324300;8.70599800;2022-11-24T02:33:10;20.53;;;6.23;;
5847;SDS011;8756;49.29324300;8.70599800;2022-11-24T02:35:37;14.73;;;4.80;;
5847;SDS011;8756;49.29324300;8.70599800;2022-11-24T02:38:03;15.23;;;4.60;;
5847;SDS011;8756;49.29324300;8.70599800;2022-11-24T02:40:29;12.70;;;5.00;;
5847;SDS011;8756;49.29324300;8.70599800;2022-11-24T02:43:38;20.20;;;4.60;;
5847;SDS011;8756;49.29324300;8.70599800;2022-11-24T02:45:46;20.97;;;5.27;;
5847;SDS011;8756;49.29324300;8.70599800;2022-11-24T02:48:13;20.77;;;5.10;;
5847;SDS011;8756;49.29324300;8.70599800;2022-11-24T02:50:39;16.00;;;5.70;;
5847;SDS011;8756;49.29324300;8.70599800;2022-11-24T02:53:06;16.43;;;4.57;;
5847;SDS011;8756;49.29324300;8.70599800;2022-11-24T02:55:32;18.90;;;5.13;;
5847;SDS011;8756;49.29324300;8.70599800;2022-11-24T02:57:58;16.50;;;4.47;;
5847;SDS011;8756;49.29324300;8.70599800;2022-11-24T03:00:23;13.47;;;5.47;;
5847;SDS011;8756;49.29324300;8.70599800;2022-11-24T03:02:49;20.70;;;5.77;;
5847;SDS011;8756;49.29324300;8.70599800;2022-11-24T03:05:16;16.00;;;5.10;;
5847;SDS011;8756;49.29324300;8.70599800;2022-11-24T03:07:41;14.13;;;4.90;;
5847;SDS011;8756;49.29324300;8.70599800;2022-11-24T03:10:07;13.90;;;4.60;;
5847;SDS011;8756;49.29324300;8.70599800;2022-11-24T03:12:34;18.63;;;6.00;;
5847;SDS011;8756;49.29324300;8.70599800;2022-11-24T03:15:00;16.33;;;5.30;;
5847;SDS011;8756;49.29324300;8.70599800;2022-11-24T03:17:27;19.47;;;5.40;;
5847;SDS011;8756;49.29324300;8.70599800;2022-11-24T03:19:53;19.63;;;4.50;;
5847;SDS011;8756;49.29324300;8.70599800;2022-11-24T03:22:19;15.70;;;4.80;;
5847;SDS011;8756;49.29324300;8.70599800;2022-11-24T03:24:45;22.90;;;4.93;;
5847;SDS011;8756;49.29324300;8.70599800;2022-11-24T03:27:11;17.30;;;5.30;;
5847;SDS011;8756;49.29324300;8.70599800;2022-11-24T03:29:37;18.70;;;4.70;;
5847;SDS011;8756;49.29324300;8.70599800;2022-11-24T03:32:03;15.20;;;5.27;;
5847;SDS011;8756;49.29324300;8.70599800;2022-11-24T03:34:29;17.10;;;4.90;;
5847;SDS011;8756;49.29324300;8.70599800;2022-11-24T03:36:55;18.37;;;5.13;;
5847;SDS011;8756;49.29324300;8.70599800;2022-11-24T03:39:21;16.90;;;4.90;;
5847;SDS011;8756;49.29324300;8.70599800;2022-11-24T03:41:46;17.23;;;5.50;;
5847;SDS011;8756;49.29324300;8.70599800;2022-11-24T03:44:15;14.47;;;4.97;;
5847;SDS011;8756;49.29324300;8.70599800;2022-11-24T03:46:42;20.13;;;5.23;;
5847;SDS011;8756;49.29324300;8.70599800;2022-11-24T03:49:08;14.67;;;4.87;;
5847;SDS011;8756;49.29324300;8.70599800;2022-11-24T03:51:34;21.13;;;5.80;;
5847;SDS011;8756;49.29324300;8.70599800;2022-11-24T03:54:00;22.43;;;4.80;;
5847;SDS011;8756;49.29324300;8.70599800;2022-11-24T03:56:26;15.97;;;5.10;;
5847;SDS011;8756;49.29324300;8.70599800;2022-11-24T03:58:52;19.07;;;4.73;;
5847;SDS011;8756;49.29324300;8.70599800;2022-11-24T04:01:18;16.60;;;5.47;;
5847;SDS011;8756;49.29324300;8.70599800;2022-11-24T04:03:44;18.63;;;5.10;;
5847;SDS011;8756;49.29324300;8.70599800;2022-11-24T04:06:10;19.30;;;4.70;;
5847;SDS011;8756;49.29324300;8.70599800;2022-11-24T04:08:36;21.77;;;4.33;;
5847;SDS011;8756;49.29324300;8.70599800;2022-11-24T04:11:01;16.73;;;4.70;;
5847;SDS011;8756;49.29324300;8.70599800;2022-11-24T04:13:28;18.30;;;4.93;;
5847;SDS011;8756;49.29324300;8.70599800;2022-11-24T04:15:54;17.13;;;5.13;;
5847;SDS011;8756;49.29324300;8.70599800;2022-11-24T04:18:19;15.80;;;5.30;;
5847;SDS011;8756;49.29324300;8.70599800;2022-11-24T04:20:48;21.90;;;6.90;;
5847;SDS011;8756;49.29324300;8.70599800;2022-11-24T04:23:15;21.53;;;4.53;;
5847;SDS011;8756;49.29324300;8.70599800;2022-11-24T04:25:41;13.57;;;4.63;;
5847;SDS011;8756;49.29324300;8.70599800;2022-11-24T04:28:07;19.90;;;6.07;;
5847;SDS011;8756;49.29324300;8.70599800;2022-11-24T04:30:34;22.80;;;5.33;;
5847;SDS011;8756;49.29324300;8.70599800;2022-11-24T04:33:02;15.17;;;4.80;;
5847;SDS011;8756;49.29324300;8.70599800;2022-11-24T04:35:28;17.13;;;5.53;;
5847;SDS011;8756;49.29324300;8.70599800;2022-11-24T04:37:54;23.37;;;4.90;;
5847;SDS011;8756;49.29324300;8.70599800;2022-11-24T04:40:20;17.30;;;5.17;;
5847;SDS011;8756;49.29324300;8.70599800;2022-11-24T04:42:52;19.50;;;4.53;;
5847;SDS011;8756;49.29324300;8.70599800;2022-11-24T04:45:20;20.73;;;4.70;;
5847;SDS011;8756;49.29324300;8.70599800;2022-11-24T04:47:46;14.97;;;4.47;;
5847;SDS011;8756;49.29324300;8.70599800;2022-11-24T04:50:12;13.67;;;4.23;;
5847;SDS011;8756;49.29324300;8.70599800;2022-11-24T04:52:38;12.73;;;4.87;;
5847;SDS011;8756;49.29324300;8.70599800;2022-11-24T04:55:04;12.60;;;4.07;;
5847;SDS011;8756;49.29324300;8.70599800;2022-11-24T04:57:30;20.73;;;5.60;;
5847;SDS011;8756;49.29324300;8.70599800;2022-11-24T04:59:56;13.20;;;4.70;;
5847;SDS011;8756;49.29324300;8.70599800;2022-11-24T05:02:22;15.97;;;4.80;;
5847;SDS011;8756;49.29324300;8.70599800;2022-11-24T05:04:49;18.00;;;4.83;;
5847;SDS011;8756;49.29324300;8.70599800;2022-11-24T05:07:15;18.60;;;4.60;;
5847;SDS011;8756;49.29324300;8.70599800;2022-11-24T05:09:42;14.67;;;5.40;;
5847;SDS011;8756;49.29324300;8.70599800;2022-11-24T05:12:27;18.53;;;4.73;;
5847;SDS011;8756;49.29324300;8.70599800;2022-11-24T05:14:58;20.33;;;5.20;;
5847;SDS011;8756;49.29324300;8.70599800;2022-11-24T05:17:30;21.53;;;5.27;;
5847;SDS011;8756;49.29324300;8.70599800;2022-11-24T05:20:01;20.33;;;5.33;;
5847;SDS011;8756;49.29324300;8.70599800;2022-11-24T05:22:29;17.10;;;5.13;;
5847;SDS011;8756;49.29324300;8.70599800;2022-11-24T05:24:55;19.97;;;4.97;;
5847;SDS011;8756;49.29324300;8.70599800;2022-11-24T05:27:21;16.23;;;5.90;;
5847;SDS011;8756;49.29324300;8.70599800;2022-11-24T05:29:48;22.47;;;5.67;;
5847;SDS011;8756;49.29324300;8.70599800;2022-11-24T05:32:13;19.13;;;5.40;;
5847;SDS011;8756;49.29324300;8.70599800;2022-11-24T05:34:39;20.43;;;5.57;;
5847;SDS011;8756;49.29324300;8.70599800;2022-11-24T05:37:05;19.00;;;5.50;;
5847;SDS011;8756;49.29324300;8.70599800;2022-11-24T05:39:32;14.70;;;4.97;;
5847;SDS011;8756;49.29324300;8.70599800;2022-11-24T05:42:02;22.63;;;5.33;;
5847;SDS011;8756;49.29324300;8.70599800;2022-11-24T05:44:48;20.30;;;5.50;;
5847;SDS011;8756;49.29324300;8.70599800;2022-11-24T05:47:14;15.73;;;4.47;;
5847;SDS011;8756;49.29324300;8.70599800;2022-11-24T05:49:41;20.07;;;4.90;;
5847;SDS011;8756;49.29324300;8.70599800;2022-11-24T05:52:07;25.60;;;5.43;;
5847;SDS011;8756;49.29324300;8.70599800;2022-11-24T05:54:33;24.13;;;5.07;;
5847;SDS011;8756;49.29324300;8.70599800;2022-11-24T05:56:59;17.60;;;4.90;;
5847;SDS011;8756;49.29324300;8.70599800;2022-11-24T05:59:25;19.33;;;5.30;;
5847;SDS011;8756;49.29324300;8.70599800;2022-11-24T06:01:51;18.20;;;5.93;;
5847;SDS011;8756;49.29324300;8.70599800;2022-11-24T06:04:17;18.33;;;5.57;;
5847;SDS011;8756;49.29324300;8.70599800;2022-11-24T06:06:43;17.97;;;5.90;;
5847;SDS011;8756;49.29324300;8.70599800;2022-11-24T06:09:10;16.60;;;4.37;;
5847;SDS011;8756;49.29324300;8.70599800;2022-11-24T06:11:36;15.97;;;4.80;;
5847;SDS011;8756;49.29324300;8.70599800;2022-11-24T06:14:02;17.33;;;4.50;;
5847;SDS011;8756;49.29324300;8.70599800;2022-11-24T06:16:28;21.37;;;5.60;;
5847;SDS011;8756;49.29324300;8.70599800;2022-11-24T06:18:54;13.40;;;4.90;;
5847;SDS011;8756;49.29324300;8.70599800;2022-11-24T06:21:20;18.57;;;4.90;;
5847;SDS011;8756;49.29324300;8.70599800;2022-11-24T06:23:46;21.90;;;6.17;;
5847;SDS011;8756;49.29324300;8.70599800;2022-11-24T06:26:13;22.83;;;5.77;;
5847;SDS011;8756;49.29324300;8.70599800;2022-11-24T06:28:39;21.70;;;4.80;;
5847;SDS011;8756;49.29324300;8.70599800;2022-11-24T06:31:05;20.03;;;5.50;;
5847;SDS011;8756;49.29324300;8.70599800;2022-11-24T06:33:32;17.90;;;5.50;;
5847;SDS011;8756;49.29324300;8.70599800;2022-11-24T06:36:00;20.70;;;4.93;;
5847;SDS011;8756;49.29324300;8.70599800;2022-11-24T06:38:29;19.67;;;5.20;;
5847;SDS011;8756;49.29324300;8.70599800;2022-11-24T06:41:00;21.53;;;6.00;;
5847;SDS011;8756;49.29324300;8.70599800;2022-11-24T06:43:29;21.60;;;5.03;;
5847;SDS011;8756;49.29324300;8.70599800;2022-11-24T06:45:55;20.93;;;5.77;;
5847;SDS011;8756;49.29324300;8.70599800;2022-11-24T06:48:22;22.90;;;5.10;;
5847;SDS011;8756;49.29324300;8.70599800;2022-11-24T06:50:49;19.80;;;5.70;;
5847;SDS011;8756;49.29324300;8.70599800;2022-11-24T06:53:16;24.50;;;5.43;;
5847;SDS011;8756;49.29324300;8.70599800;2022-11-24T06:55:42;21.40;;;5.90;;
5847;SDS011;8756;49.29324300;8.70599800;2022-11-24T06:58:09;23.20;;;5.63;;
5847;SDS011;8756;49.29324300;8.70599800;2022-11-24T07:00:36;17.43;;;4.20;;
5847;SDS011;8756;49.29324300;8.70599800;2022-11-24T07:03:02;18.13;;;5.10;;
5847;SDS011;8756;49.29324300;8.70599800;2022-11-24T07:05:28;20.80;;;5.00;;
5847;SDS011;8756;49.29324300;8.70599800;2022-11-24T07:07:54;20.23;;;5.70;;
5847;SDS011;8756;49.29324300;8.70599800;2022-11-24T07:10:20;18.90;;;5.50;;
5847;SDS011;8756;49.29324300;8.70599800;2022-11-24T07:12:46;22.73;;;5.43;;
5847;SDS011;8756;49.29324300;8.70599800;2022-11-24T07:15:12;20.03;;;6.00;;
5847;SDS011;8756;49.29324300;8.70599800;2022-11-24T07:17:39;20.30;;;4.90;;
5847;SDS011;8756;49.29324300;8.70599800;2022-11-24T07:20:06;18.93;;;5.00;;
5847;SDS011;8756;49.29324300;8.70599800;2022-11-24T07:22:33;18.77;;;5.20;;
5847;SDS011;8756;49.29324300;8.70599800;2022-11-24T07:25:02;23.03;;;5.90;;
5847;SDS011;8756;49.29324300;8.70599800;2022-11-24T07:27:31;19.53;;;6.50;;
5847;SDS011;8756;49.29324300;8.70599800;2022-11-24T07:29:57;22.00;;;5.77;;
5847;SDS011;8756;49.29324300;8.70599800;2022-11-24T07:32:23;27.57;;;5.90;;
5847;SDS011;8756;49.29324300;8.70599800;2022-11-24T07:34:49;21.40;;;6.00;;
5847;SDS011;8756;49.29324300;8.70599800;2022-11-24T07:37:15;23.77;;;5.70;;
5847;SDS011;8756;49.29324300;8.70599800;2022-11-24T07:39:41;24.10;;;5.80;;
5847;SDS011;8756;49.29324300;8.70599800;2022-11-24T07:42:07;18.93;;;6.03;;
5847;SDS011;8756;49.29324300;8.70599800;2022-11-24T07:44:34;23.20;;;5.93;;
5847;SDS011;8756;49.29324300;8.70599800;2022-11-24T07:47:00;24.27;;;5.63;;
5847;SDS011;8756;49.29324300;8.70599800;2022-11-24T07:49:26;28.00;;;6.23;;
5847;SDS011;8756;49.29324300;8.70599800;2022-11-24T07:51:52;20.60;;;4.97;;
5847;SDS011;8756;49.29324300;8.70599800;2022-11-24T07:54:18;22.97;;;7.50;;
5847;SDS011;8756;49.29324300;8.70599800;2022-11-24T07:56:46;25.13;;;5.77;;
5847;SDS011;8756;49.29324300;8.70599800;2022-11-24T07:59:13;21.73;;;6.27;;
5847;SDS011;8756;49.29324300;8.70599800;2022-11-24T08:01:39;23.57;;;5.77;;
5847;SDS011;8756;49.29324300;8.70599800;2022-11-24T08:04:05;18.20;;;4.60;;
5847;SDS011;8756;49.29324300;8.70599800;2022-11-24T08:06:31;19.53;;;5.30;;
5847;SDS011;8756;49.29324300;8.70599800;2022-11-24T08:08:57;18.23;;;4.93;;
5847;SDS011;8756;49.29324300;8.70599800;2022-11-24T08:11:25;24.07;;;5.20;;
5847;SDS011;8756;49.29324300;8.70599800;2022-11-24T08:13:52;16.23;;;4.37;;
5847;SDS011;8756;49.29324300;8.70599800;2022-11-24T08:16:18;21.33;;;5.90;;
5847;SDS011;8756;49.29324300;8.70599800;2022-11-24T08:18:51;20.27;;;4.97;;
5847;SDS011;8756;49.29324300;8.70599800;2022-11-24T08:21:19;17.27;;;5.00;;
5847;SDS011;8756;49.29324300;8.70599800;2022-11-24T08:23:47;15.80;;;4.67;;
5847;SDS011;8756;49.29324300;8.70599800;2022-11-24T08:26:14;22.63;;;5.10;;
5847;SDS011;8756;49.29324300;8.70599800;2022-11-24T08:28:43;15.07;;;3.87;;
5847;SDS011;8756;49.29324300;8.70599800;2022-11-24T08:31:14;20.50;;;6.33;;
5847;SDS011;8756;49.29324300;8.70599800;2022-11-24T08:33:45;19.63;;;5.27;;
5847;SDS011;8756;49.29324300;8.70599800;2022-11-24T08:36:12;16.23;;;4.43;;
5847;SDS011;8756;49.29324300;8.70599800;2022-11-24T08:38:42;15.67;;;5.00;;
5847;SDS011;8756;49.29324300;8.70599800;2022-11-24T08:41:15;20.63;;;5.27;;
5847;SDS011;8756;49.29324300;8.70599800;2022-11-24T08:43:41;18.37;;;5.00;;
5847;SDS011;8756;49.29324300;8.70599800;2022-11-24T08:46:08;21.90;;;5.20;;
5847;SDS011;8756;49.29324300;8.70599800;2022-11-24T08:48:37;17.80;;;4.60;;
5847;SDS011;8756;49.29324300;8.70599800;2022-11-24T08:51:13;13.47;;;4.10;;
5847;SDS011;8756;49.29324300;8.70599800;2022-11-24T08:53:42;12.40;;;4.10;;
5847;SDS011;8756;49.29324300;8.70599800;2022-11-24T11:48:55;17.23;;;4.60;;
5847;SDS011;8756;49.29324300;8.70599800;2022-11-24T11:51:25;15.07;;;4.20;;
5847;SDS011;8756;49.29324300;8.70599800;2022-11-24T11:57:02;17.33;;;4.50;;
5847;SDS011;8756;49.29324300;8.70599800;2022-11-24T11:59:38;16.03;;;3.80;;
5847;SDS011;8756;49.29324300;8.70599800;2022-11-24T12:05:00;13.80;;;4.17;;
5847;SDS011;8756;49.29324300;8.70599800;2022-11-24T12:13:30;15.20;;;4.70;;
5847;SDS011;8756;49.29324300;8.70599800;2022-11-24T12:22:08;20.20;;;4.37;;
5847;SDS011;8756;49.29324300;8.70599800;2022-11-24T12:27:40;16.00;;;3.73;;
5847;SDS011;8756;49.29324300;8.70599800;2022-11-24T12:30:24;18.00;;;5.13;;
5847;SDS011;8756;49.29324300;8.70599800;2022-11-24T12:33:11;20.70;;;4.40;;
5847;SDS011;8756;49.29324300;8.70599800;2022-11-24T12:36:25;23.23;;;5.87;;
5847;SDS011;8756;49.29324300;8.70599800;2022-11-24T12:39:23;12.63;;;3.80;;
5847;SDS011;8756;49.29324300;8.70599800;2022-11-24T12:42:25;13.33;;;4.20;;
5847;SDS011;8756;49.29324300;8.70599800;2022-11-24T12:50:26;13.63;;;4.40;;
5847;SDS011;8756;49.29324300;8.70599800;2022-11-24T12:53:11;16.03;;;4.50;;
5847;SDS011;8756;49.29324300;8.70599800;2022-11-24T12:55:43;16.23;;;4.87;;
5847;SDS011;8756;49.29324300;8.70599800;2022-11-24T13:04:21;17.27;;;4.33;;
5847;SDS011;8756;49.29324300;8.70599800;2022-11-24T13:07:25;14.97;;;4.23;;
5847;SDS011;8756;49.29324300;8.70599800;2022-11-24T13:13:03;19.10;;;5.47;;
5847;SDS011;8756;49.29324300;8.70599800;2022-11-24T13:31:51;18.33;;;4.60;;
5847;SDS011;8756;49.29324300;8.70599800;2022-11-24T13:40:00;20.23;;;5.20;;
5847;SDS011;8756;49.29324300;8.70599800;2022-11-24T13:53:40;15.40;;;4.40;;
5847;SDS011;8756;49.29324300;8.70599800;2022-11-24T13:58:37;17.43;;;5.23;;
5847;SDS011;8756;49.29324300;8.70599800;2022-11-24T14:04:11;16.17;;;4.93;;
5847;SDS011;8756;49.29324300;8.70599800;2022-11-24T14:09:23;19.03;;;4.67;;
5847;SDS011;8756;49.29324300;8.70599800;2022-11-24T14:12:21;15.53;;;4.67;;
5847;SDS011;8756;49.29324300;8.70599800;2022-11-24T14:14:49;16.33;;;4.70;;
5847;SDS011;8756;49.29324300;8.70599800;2022-11-24T14:19:48;23.47;;;4.67;;
5847;SDS011;8756;49.29324300;8.70599800;2022-11-24T14:22:23;16.93;;;5.00;;
5847;SDS011;8756;49.29324300;8.70599800;2022-11-24T14:24:52;20.03;;;4.97;;
5847;SDS011;8756;49.29324300;8.70599800;2022-11-24T14:27:55;23.70;;;4.87;;
5847;SDS011;8756;49.29324300;8.70599800;2022-11-24T14:32:39;18.10;;;4.63;;
5847;SDS011;8756;49.29324300;8.70599800;2022-11-24T14:37:58;26.77;;;5.47;;
5847;SDS011;8756;49.29324300;8.70599800;2022-11-24T14:43:16;14.97;;;4.80;;
5847;SDS011;8756;49.29324300;8.70599800;2022-11-24T14:45:56;14.03;;;4.70;;
5847;SDS011;8756;49.29324300;8.70599800;2022-11-24T14:48:27;15.13;;;5.27;;
5847;SDS011;8756;49.29324300;8.70599800;2022-11-24T14:53:45;17.57;;;4.57;;
5847;SDS011;8756;49.29324300;8.70599800;2022-11-24T14:58:53;12.37;;;4.00;;
5847;SDS011;8756;49.29324300;8.70599800;2022-11-24T15:09:52;20.60;;;5.03;;
5847;SDS011;8756;49.29324300;8.70599800;2022-11-24T15:15:03;14.27;;;5.00;;
5847;SDS011;8756;49.29324300;8.70599800;2022-11-24T15:18:00;27.97;;;6.83;;
5847;SDS011;8756;49.29324300;8.70599800;2022-11-24T15:23:30;18.17;;;5.10;;
5847;SDS011;8756;49.29324300;8.70599800;2022-11-24T15:26:21;19.80;;;5.47;;
5847;SDS011;8756;49.29324300;8.70599800;2022-11-24T15:28:44;16.40;;;5.13;;
5847;SDS011;8756;49.29324300;8.70599800;2022-11-24T15:31:11;22.93;;;5.00;;
5847;SDS011;8756;49.29324300;8.70599800;2022-11-24T15:33:38;15.97;;;4.97;;
5847;SDS011;8756;49.29324300;8.70599800;2022-11-24T15:36:05;20.60;;;5.47;;
5847;SDS011;8756;49.29324300;8.70599800;2022-11-24T15:38:31;18.03;;;5.70;;
5847;SDS011;8756;49.29324300;8.70599800;2022-11-24T15:40:58;21.30;;;4.20;;
5847;SDS011;8756;49.29324300;8.70599800;2022-11-24T15:43:32;20.40;;;4.63;;
5847;SDS011;8756;49.29324300;8.70599800;2022-11-24T15:46:00;17.90;;;5.23;;
5847;SDS011;8756;49.29324300;8.70599800;2022-11-24T15:48:30;18.00;;;5.23;;
5847;SDS011;8756;49.29324300;8.70599800;2022-11-24T15:50:56;17.77;;;5.60;;
5847;SDS011;8756;49.29324300;8.70599800;2022-11-24T15:53:38;24.50;;;7.20;;
5847;SDS011;8756;49.29324300;8.70599800;2022-11-24T15:56:23;15.27;;;5.63;;
5847;SDS011;8756;49.29324300;8.70599800;2022-11-24T15:59:00;16.30;;;6.40;;
5847;SDS011;8756;49.29324300;8.70599800;2022-11-24T16:01:30;27.43;;;7.03;;
5847;SDS011;8756;49.29324300;8.70599800;2022-11-24T16:03:57;28.77;;;6.20;;
5847;SDS011;8756;49.29324300;8.70599800;2022-11-24T16:06:24;25.93;;;6.53;;
5847;SDS011;8756;49.29324300;8.70599800;2022-11-24T16:08:50;28.40;;;7.13;;
5847;SDS011;8756;49.29324300;8.70599800;2022-11-24T16:11:19;19.13;;;5.20;;
5847;SDS011;8756;49.29324300;8.70599800;2022-11-24T16:13:46;23.87;;;6.20;;
5847;SDS011;8756;49.29324300;8.70599800;2022-11-24T16:16:12;19.50;;;5.83;;
5847;SDS011;8756;49.29324300;8.70599800;2022-11-24T16:18:38;17.37;;;4.70;;
5847;SDS011;8756;49.29324300;8.70599800;2022-11-24T16:21:05;17.90;;;5.80;;
5847;SDS011;8756;49.29324300;8.70599800;2022-11-24T16:23:32;19.77;;;5.27;;
5847;SDS011;8756;49.29324300;8.70599800;2022-11-24T16:25:59;21.80;;;5.20;;
5847;SDS011;8756;49.29324300;8.70599800;2022-11-24T16:28:27;25.70;;;4.70;;
5847;SDS011;8756;49.29324300;8.70599800;2022-11-24T16:30:52;22.90;;;5.10;;
5847;SDS011;8756;49.29324300;8.70599800;2022-11-24T16:33:18;21.07;;;5.27;;
5847;SDS011;8756;49.29324300;8.70599800;2022-11-24T16:35:47;19.07;;;5.70;;
5847;SDS011;8756;49.29324300;8.70599800;2022-11-24T16:38:16;21.13;;;6.10;;
5847;SDS011;8756;49.29324300;8.70599800;2022-11-24T16:40:43;18.60;;;5.67;;
5847;SDS011;8756;49.29324300;8.70599800;2022-11-24T16:43:14;21.43;;;6.80;;
5847;SDS011;8756;49.29324300;8.70599800;2022-11-24T16:45:40;27.47;;;8.27;;
5847;SDS011;8756;49.29324300;8.70599800;2022-11-24T16:48:05;20.70;;;7.80;;
5847;SDS011;8756;49.29324300;8.70599800;2022-11-24T16:50:31;25.37;;;7.07;;
5847;SDS011;8756;49.29324300;8.70599800;2022-11-24T16:52:57;18.70;;;6.10;;
5847;SDS011;8756;49.29324300;8.70599800;2022-11-24T16:55:23;18.27;;;5.80;;
5847;SDS011;8756;49.29324300;8.70599800;2022-11-24T16:57:48;20.47;;;6.80;;
5847;SDS011;8756;49.29324300;8.70599800;2022-11-24T17:00:14;23.00;;;7.80;;
5847;SDS011;8756;49.29324300;8.70599800;2022-11-24T17:02:40;18.93;;;6.43;;
5847;SDS011;8756;49.29324300;8.70599800;2022-11-24T17:05:06;22.40;;;7.83;;
5847;SDS011;8756;49.29324300;8.70599800;2022-11-24T17:07:32;18.00;;;8.43;;
5847;SDS011;8756;49.29324300;8.70599800;2022-11-24T17:09:58;19.80;;;7.03;;
5847;SDS011;8756;49.29324300;8.70599800;2022-11-24T17:12:24;20.90;;;7.77;;
5847;SDS011;8756;49.29324300;8.70599800;2022-11-24T17:14:51;18.90;;;6.50;;
5847;SDS011;8756;49.29324300;8.70599800;2022-11-24T17:17:16;19.17;;;6.60;;
5847;SDS011;8756;49.29324300;8.70599800;2022-11-24T17:19:42;24.47;;;6.80;;
5847;SDS011;8756;49.29324300;8.70599800;2022-11-24T17:22:08;47.33;;;7.53;;
5847;SDS011;8756;49.29324300;8.70599800;2022-11-24T17:24:33;25.47;;;8.53;;
5847;SDS011;8756;49.29324300;8.70599800;2022-11-24T17:26:59;16.80;;;6.60;;
5847;SDS011;8756;49.29324300;8.70599800;2022-11-24T17:29:25;21.20;;;7.60;;
5847;SDS011;8756;49.29324300;8.70599800;2022-11-24T17:31:50;18.70;;;7.47;;
5847;SDS011;8756;49.29324300;8.70599800;2022-11-24T17:34:16;18.47;;;6.60;;
5847;SDS011;8756;49.29324300;8.70599800;2022-11-24T17:36:42;22.50;;;7.40;;
5847;SDS011;8756;49.29324300;8.70599800;2022-11-24T17:39:09;26.33;;;7.23;;
5847;SDS011;8756;49.29324300;8.70599800;2022-11-24T17:41:36;25.80;;;7.97;;
5847;SDS011;8756;49.29324300;8.70599800;2022-11-24T17:44:02;27.47;;;8.90;;
5847;SDS011;8756;49.29324300;8.70599800;2022-11-24T17:46:28;25.90;;;10.27;;
5847;SDS011;8756;49.29324300;8.70599800;2022-11-24T17:48:55;23.93;;;9.70;;
5847;SDS011;8756;49.29324300;8.70599800;2022-11-24T17:51:22;22.13;;;9.97;;
5847;SDS011;8756;49.29324300;8.70599800;2022-11-24T17:53:50;25.70;;;10.90;;
5847;SDS011;8756;49.29324300;8.70599800;2022-11-24T17:56:18;25.07;;;9.93;;
5847;SDS011;8756;49.29324300;8.70599800;2022-11-24T17:58:47;27.37;;;10.23;;
5847;SDS011;8756;49.29324300;8.70599800;2022-11-24T18:01:18;26.13;;;10.20;;
5847;SDS011;8756;49.29324300;8.70599800;2022-11-24T18:03:44;28.67;;;12.50;;